Time;durP1;ratioP1;P1;durP2;ratioP2;P2;SDS_P1;SDS_P2;PMS_P1;PMS_P2;Temp;Humidity;BMP_temperature;BMP_pressure;BME280_temperature;BME280_humidity;BME280_pressure;Samples;Min_cycle;Max_cycle;Signal;HPM_P1;HPM_P2
2022/08/29 00:01:19;;;;;;;1.42;1.00;;;;;;;29.96;31.20;100534.91;4962256;28;20065;-80
2022/08/29 00:03:48;;;;;;;1.90;0.90;;;;;;;29.95;31.22;100531.38;4959336;28;20051;-78
2022/08/29 00:06:17;;;;;;;1.85;1.10;;;;;;;29.89;30.01;100536.19;4970850;28;20133;-80
2022/08/29 00:08:47;;;;;;;1.27;1.00;;;;;;;29.78;29.86;100526.97;4971264;28;20302;-78
2022/08/29 00:11:16;;;;;;;3.20;1.00;;;;;;;29.77;30.84;100527.91;4962726;28;20572;-76
2022/08/29 00:13:45;;;;;;;2.08;1.02;;;;;;;29.76;29.66;100514.69;4968646;28;20138;-78
2022/08/29 00:16:13;;;;;;;2.58;0.90;;;;;;;29.82;30.10;100517.00;4966522;28;20081;-78
2022/08/29 00:18:42;;;;;;;3.17;0.85;;;;;;;29.83;29.97;100519.59;4970984;28;20424;-79
2022/08/29 00:21:11;;;;;;;2.15;1.00;;;;;;;29.83;30.14;100514.25;4967317;28;20404;-77
2022/08/29 00:23:40;;;;;;;3.28;1.00;;;;;;;29.82;30.00;100523.16;4971133;28;20419;-83
2022/08/29 00:26:10;;;;;;;2.78;0.80;;;;;;;29.79;29.63;100523.34;4971054;28;20046;-79
2022/08/29 00:28:39;;;;;;;2.45;0.82;;;;;;;29.77;30.70;100522.56;4967099;28;20039;-77
2022/08/29 00:31:08;;;;;;;2.08;1.13;;;;;;;29.76;29.58;100518.19;4967069;28;20048;-79
2022/08/29 00:33:37;;;;;;;1.48;0.80;;;;;;;29.74;30.26;100522.75;4966922;28;20065;-80
2022/08/29 00:36:05;;;;;;;3.80;1.10;;;;;;;29.70;30.02;100523.00;4971701;28;20050;-80
2022/08/29 00:38:34;;;;;;;1.42;0.80;;;;;;;29.67;30.35;100518.66;4969900;28;20101;-79
2022/08/29 00:41:02;;;;;;;1.33;0.80;;;;;;;29.70;30.31;100523.84;4966970;28;20101;-77
2022/08/29 00:43:35;;;;;;;4.05;1.10;;;;;;;29.71;31.27;100527.38;4969820;28;20043;-81
2022/08/29 00:46:19;;;;;;;1.58;1.00;;;;;;;29.67;30.62;100524.00;4971277;28;20051;-77
2022/08/29 00:48:54;;;;;;;2.55;1.00;;;;;;;29.67;31.20;100525.81;4988441;28;20047;-79
2022/08/29 00:51:24;;;;;;;1.52;0.90;;;;;;;29.62;30.69;100510.06;4984502;28;20507;-76
2022/08/29 00:53:58;;;;;;;1.58;0.93;;;;;;;29.56;30.74;100511.22;4980750;28;20061;-77
2022/08/29 00:56:28;;;;;;;2.72;1.00;;;;;;;29.54;31.20;100522.94;4985821;28;20520;-75
2022/08/29 00:59:04;;;;;;;2.30;1.27;;;;;;;29.49;31.68;100514.31;4986691;28;20054;-78
2022/08/29 01:01:33;;;;;;;3.38;0.90;;;;;;;29.45;31.26;100514.47;4982908;28;20050;-80
2022/08/29 01:04:01;;;;;;;3.95;1.10;;;;;;;29.39;31.63;100505.94;4992253;28;20050;-79
2022/08/29 01:06:32;;;;;;;4.18;2.30;;;;;;;29.31;31.34;100505.50;4995098;28;20047;-83
2022/08/29 01:09:00;;;;;;;1.52;1.00;;;;;;;29.23;31.50;100509.41;4995232;28;20050;-84
2022/08/29 01:14:23;;;;;;;3.53;1.00;;;;;;;29.13;31.83;100507.31;4992764;28;20250;-77
2022/08/29 01:16:55;;;;;;;1.58;0.98;;;;;;;29.10;31.47;100507.47;4986301;28;20487;-77
2022/08/29 01:19:32;;;;;;;2.40;1.35;;;;;;;29.07;31.81;100503.13;4989436;28;20053;-78
2022/08/29 01:22:10;;;;;;;3.10;1.33;;;;;;;28.96;31.30;100503.69;4988571;28;20075;-79
2022/08/29 01:24:44;;;;;;;3.25;1.20;;;;;;;28.86;31.64;100513.06;4989327;28;20134;-76
2022/08/29 01:27:14;;;;;;;2.42;1.33;;;;;;;28.77;31.83;100508.19;4984588;28;20058;-80
2022/08/29 01:29:43;;;;;;;2.97;1.80;;;;;;;28.70;32.32;100512.09;4993565;28;20129;-79
2022/08/29 01:32:13;;;;;;;2.78;1.63;;;;;;;28.66;32.38;100515.88;4994175;28;20500;-76
2022/08/29 01:34:42;;;;;;;1.63;0.93;;;;;;;28.59;32.05;100513.53;4989530;28;20420;-76
2022/08/29 01:37:13;;;;;;;2.33;0.90;;;;;;;28.54;32.22;100510.22;4988355;28;20077;-79
2022/08/29 01:39:44;;;;;;;;;;;;;;;28.53;32.34;100510.28;4988987;28;20050;-78
2022/08/29 01:42:15;;;;;;;2.10;1.00;;;;;;;28.48;32.63;100521.16;4989722;28;20545;-78
2022/08/29 01:44:49;;;;;;;3.50;1.07;;;;;;;28.40;32.12;100512.66;5003334;28;20042;-79
2022/08/29 01:47:18;;;;;;;4.30;1.10;;;;;;;28.34;32.45;100515.63;4982961;28;20314;-79
2022/08/29 01:49:47;;;;;;;3.05;1.08;;;;;;;28.25;31.92;100516.94;4994118;28;20043;-80
2022/08/29 01:52:15;;;;;;;4.50;1.13;;;;;;;28.17;32.68;100509.28;4992057;28;20050;-77
2022/08/29 01:54:46;;;;;;;3.42;1.17;;;;;;;28.10;33.37;100509.66;4992582;28;20504;-76
2022/08/29 01:57:16;;;;;;;3.47;1.20;;;;;;;28.01;33.05;100510.97;4995757;28;20571;-74
2022/08/29 01:59:45;;;;;;;1.17;1.00;;;;;;;27.92;32.97;100506.97;4992437;28;20046;-76
2022/08/29 02:02:18;;;;;;;3.10;1.38;;;;;;;27.84;34.28;100502.94;4991531;28;20133;-77
2022/08/29 02:04:48;;;;;;;1.17;0.90;;;;;;;27.76;34.40;100511.19;5002924;28;20046;-80
2022/08/29 02:07:17;;;;;;;1.88;1.10;;;;;;;27.67;34.67;100507.19;5001924;28;20050;-77
2022/08/29 02:09:49;;;;;;;2.13;1.00;;;;;;;27.61;35.20;100517.25;4992425;28;20062;-77
2022/08/29 02:12:19;;;;;;;3.07;1.20;;;;;;;27.52;35.31;100514.06;4995789;28;20050;-78
2022/08/29 02:14:48;;;;;;;2.20;1.00;;;;;;;27.45;34.32;100519.72;4988554;28;20452;-78
2022/08/29 02:17:17;;;;;;;1.38;1.20;;;;;;;27.41;35.00;100523.44;4984424;28;20409;-77
2022/08/29 02:19:45;;;;;;;3.60;0.90;;;;;;;27.31;34.38;100526.50;4989310;28;20432;-76
2022/08/29 02:22:14;;;;;;;2.83;1.00;;;;;;;27.26;34.60;100519.66;4987235;28;20141;-74
2022/08/29 02:24:43;;;;;;;2.33;1.08;;;;;;;27.17;34.94;100521.75;4991576;28;20046;-75
2022/08/29 02:27:13;;;;;;;2.90;1.00;;;;;;;27.10;35.42;100524.75;4988296;28;20046;-75
2022/08/29 02:29:42;;;;;;;4.15;1.33;;;;;;;27.01;35.92;100520.69;4991787;28;20407;-77
2022/08/29 02:32:12;;;;;;;3.60;1.00;;;;;;;26.94;35.94;100525.41;4989796;28;20042;-77
2022/08/29 02:34:42;;;;;;;2.83;1.10;;;;;;;26.81;36.35;100524.19;4991926;28;20516;-81
2022/08/29 02:37:11;;;;;;;3.45;1.45;;;;;;;26.71;36.42;100526.34;4984595;28;20638;-76
2022/08/29 02:39:40;;;;;;;5.38;1.10;;;;;;;26.64;36.63;100534.63;4990794;28;20244;-79
2022/08/29 02:42:09;;;;;;;2.28;1.20;;;;;;;26.53;36.84;100537.69;4993626;28;20060;-79
2022/08/29 02:44:39;;;;;;;3.25;1.15;;;;;;;26.42;37.77;100538.09;4991932;28;20061;-77
2022/08/29 02:47:09;;;;;;;2.35;0.93;;;;;;;26.31;38.31;100535.03;4990158;28;20138;-79
2022/08/29 02:49:37;;;;;;;1.20;0.98;;;;;;;26.21;38.79;100541.63;4979406;28;20046;-78
2022/08/29 02:52:07;;;;;;;2.50;0.98;;;;;;;26.06;38.89;100535.97;4985944;28;20074;-79
2022/08/29 02:54:36;;;;;;;3.35;1.00;;;;;;;26.00;38.36;100538.88;4966286;28;20058;-81
2022/08/29 02:57:05;;;;;;;2.45;1.35;;;;;;;25.89;39.23;100541.06;4975424;28;20448;-78
2022/08/29 02:59:33;;;;;;;3.35;1.15;;;;;;;25.82;38.13;100550.13;4985183;28;20079;-76
2022/08/29 03:02:04;;;;;;;3.35;1.30;;;;;;;25.72;39.35;100546.94;4975426;28;20044;-80
2022/08/29 03:04:32;;;;;;;13.07;4.78;;;;;;;25.66;39.29;100558.63;4972939;28;20051;-77
2022/08/29 03:07:01;;;;;;;17.20;6.00;;;;;;;25.62;39.60;100551.72;4971149;28;20110;-77
2022/08/29 03:09:29;;;;;;;8.85;3.78;;;;;;;25.59;39.53;100557.13;4973886;28;20045;-78
2022/08/29 03:11:58;;;;;;;6.13;2.83;;;;;;;25.56;39.64;100559.88;4965549;28;20097;-77
2022/08/29 03:14:26;;;;;;;7.47;2.60;;;;;;;25.50;39.40;100560.97;4981519;28;20109;-79
2022/08/29 03:16:55;;;;;;;4.90;2.05;;;;;;;25.46;39.22;100563.78;4967469;28;20143;-79
2022/08/29 03:19:29;;;;;;;2.70;1.33;;;;;;;25.42;39.81;100572.75;4977782;28;20459;-80
2022/08/29 03:21:59;;;;;;;7.20;1.30;;;;;;;25.38;39.76;100572.00;4981082;28;20096;-77
2022/08/29 03:24:27;;;;;;;3.10;1.10;;;;;;;25.35;40.04;100576.53;4973130;28;20051;-79
2022/08/29 03:26:56;;;;;;;3.28;1.30;;;;;;;25.31;40.02;100574.91;4975848;28;20043;-80
2022/08/29 03:29:25;;;;;;;2.60;1.33;;;;;;;25.25;39.84;100581.28;4977008;28;20062;-78
2022/08/29 03:31:57;;;;;;;2.78;1.55;;;;;;;25.20;40.39;100589.38;4973447;28;20046;-77
2022/08/29 03:34:27;;;;;;;3.40;1.25;;;;;;;25.17;40.56;100591.22;4971968;28;20051;-77
2022/08/29 03:36:56;;;;;;;1.50;1.00;;;;;;;25.12;40.69;100598.47;4964760;28;20129;-77
2022/08/29 03:39:25;;;;;;;2.05;1.17;;;;;;;25.09;40.36;100594.13;4969066;28;20049;-77
2022/08/29 03:41:54;;;;;;;2.08;1.10;;;;;;;25.05;40.91;100595.16;4971980;28;20062;-76
2022/08/29 03:44:23;;;;;;;2.35;1.10;;;;;;;24.97;40.62;100592.78;4972160;28;20138;-77
2022/08/29 03:46:51;;;;;;;2.78;1.13;;;;;;;24.95;41.31;100599.03;4987734;28;20145;-80
2022/08/29 03:49:20;;;;;;;3.30;1.27;;;;;;;24.90;41.11;100603.59;4992529;28;20512;-78
2022/08/29 03:51:51;;;;;;;1.83;1.13;;;;;;;24.83;41.00;100606.44;4986449;28;20429;-79
2022/08/29 03:54:19;;;;;;;2.30;1.15;;;;;;;24.80;41.39;100609.16;4991795;28;20483;-78
2022/08/29 03:56:48;;;;;;;2.20;1.48;;;;;;;24.76;41.37;100606.66;4989428;28;20453;-76
2022/08/29 03:59:18;;;;;;;3.63;1.50;;;;;;;24.71;42.22;100617.41;4993543;28;20528;-77
2022/08/29 04:01:47;;;;;;;3.70;1.38;;;;;;;24.66;41.87;100619.34;4989771;28;20047;-77
2022/08/29 04:07:00;;;;;;;3.75;1.15;;;;;;;24.51;42.34;100623.31;4992741;28;20096;-76
2022/08/29 04:09:29;;;;;;;2.00;1.20;;;;;;;24.46;42.73;100620.78;4985382;28;21371;-77
2022/08/29 04:11:58;;;;;;;2.33;1.25;;;;;;;24.39;42.71;100616.56;4980330;28;20629;-76
2022/08/29 04:14:28;;;;;;;4.00;1.35;;;;;;;24.37;43.49;100622.81;4985986;28;20460;-79
2022/08/29 04:16:56;;;;;;;2.65;1.30;;;;;;;24.33;43.08;100627.34;4992216;28;20053;-77
2022/08/29 04:19:25;;;;;;;1.85;1.33;;;;;;;24.27;43.07;100627.53;4988185;28;20081;-77
2022/08/29 04:21:54;;;;;;;3.33;1.40;;;;;;;24.23;44.01;100631.16;4993149;28;20046;-78
2022/08/29 04:24:24;;;;;;;2.47;1.20;;;;;;;24.17;43.73;100636.66;4996089;28;20406;-78
2022/08/29 04:26:53;;;;;;;4.75;1.67;;;;;;;24.11;43.70;100637.66;4984590;28;20046;-79
2022/08/29 04:29:21;;;;;;;3.10;1.20;;;;;;;24.07;44.83;100638.66;4985923;28;20053;-77
2022/08/29 04:31:50;;;;;;;2.05;1.25;;;;;;;24.01;45.91;100634.44;4986841;28;20057;-76
2022/08/29 04:34:21;;;;;;;3.83;1.33;;;;;;;23.96;45.68;100636.34;4986152;28;20050;-77
2022/08/29 04:36:49;;;;;;;2.85;1.77;;;;;;;23.90;44.98;100644.44;4989032;28;20077;-76
2022/08/29 04:39:18;;;;;;;4.13;1.50;;;;;;;23.88;45.76;100645.38;4988895;28;20046;-78
2022/08/29 04:41:48;;;;;;;5.70;1.48;;;;;;;23.83;45.48;100640.22;4990172;28;20053;-79
2022/08/29 04:44:17;;;;;;;4.20;1.50;;;;;;;23.79;45.64;100641.22;4989068;28;20054;-77
2022/08/29 04:46:45;;;;;;;2.95;1.30;;;;;;;23.79;45.88;100643.84;4988573;28;20053;-78
2022/08/29 04:49:14;;;;;;;3.67;1.42;;;;;;;23.76;46.33;100646.59;4990239;28;20050;-78
2022/08/29 04:51:42;;;;;;;2.35;1.30;;;;;;;23.73;46.30;100641.31;4989497;28;20119;-80
2022/08/29 04:54:11;;;;;;;3.13;1.20;;;;;;;23.63;46.81;100641.56;4988014;28;20058;-79
2022/08/29 04:56:39;;;;;;;3.13;1.25;;;;;;;23.54;47.04;100641.81;4986506;28;20049;-77
2022/08/29 04:59:09;;;;;;;3.85;1.20;;;;;;;23.46;47.20;100635.03;4981044;28;20390;-77
2022/08/29 05:01:38;;;;;;;5.85;1.70;;;;;;;23.37;47.73;100633.47;4990328;28;20520;-79
2022/08/29 05:04:06;;;;;;;5.45;1.80;;;;;;;23.30;47.84;100642.47;4985208;28;20042;-78
2022/08/29 05:06:35;;;;;;;3.65;1.35;;;;;;;23.27;48.05;100645.16;4988156;28;20091;-78
2022/08/29 05:09:04;;;;;;;2.97;1.20;;;;;;;23.24;48.33;100643.47;4986129;28;20704;-78
2022/08/29 05:11:33;;;;;;;3.13;1.42;;;;;;;23.23;48.83;100648.78;4987413;28;20534;-77
2022/08/29 05:14:02;;;;;;;1.83;1.25;;;;;;;23.18;49.43;100648.88;4998440;28;20088;-79
2022/08/29 05:16:35;;;;;;;3.33;1.52;;;;;;;23.12;49.23;100644.63;4988973;28;20090;-78
2022/08/29 05:19:05;;;;;;;3.95;1.40;;;;;;;23.06;50.00;100657.97;4978882;28;20524;-78
2022/08/29 05:21:36;;;;;;;4.70;1.60;;;;;;;22.96;49.23;100649.38;4977114;28;20054;-79
2022/08/29 05:24:07;;;;;;;3.47;1.20;;;;;;;22.90;49.24;100653.94;4993896;28;20053;-78
2022/08/29 05:26:38;;;;;;;3.92;1.50;;;;;;;22.82;50.74;100653.25;4994017;28;20165;-80
2022/08/29 05:29:08;;;;;;;2.58;1.45;;;;;;;22.71;50.64;100656.97;4987232;28;20050;-78
2022/08/29 05:31:39;;;;;;;4.47;1.55;;;;;;;22.62;50.42;100648.41;4987694;28;20050;-80
2022/08/29 05:34:09;;;;;;;3.87;1.53;;;;;;;22.54;50.44;100657.38;4989433;28;20066;-80
2022/08/29 05:36:37;;;;;;;4.13;1.45;;;;;;;22.49;51.48;100651.31;4984290;28;20098;-79
2022/08/29 05:39:06;;;;;;;2.30;1.35;;;;;;;22.42;51.13;100657.59;4991807;28;20050;-78
2022/08/29 05:41:35;;;;;;;2.55;1.40;;;;;;;22.33;51.01;100652.53;4985329;28;20051;-77
2022/08/29 05:44:04;;;;;;;3.75;1.90;;;;;;;22.25;51.89;100650.06;4981858;28;20046;-79
2022/08/29 05:46:32;;;;;;;4.63;1.80;;;;;;;22.23;51.97;100654.50;4986732;28;20607;-78
2022/08/29 05:49:03;;;;;;;4.32;1.80;;;;;;;22.20;52.72;100651.91;4987364;28;20058;-78
2022/08/29 05:51:32;;;;;;;4.43;1.73;;;;;;;22.17;52.24;100654.56;4989239;28;20046;-82
2022/08/29 05:54:00;;;;;;;5.78;1.77;;;;;;;22.11;52.92;100647.66;4990027;28;20504;-82
2022/08/29 05:56:29;;;;;;;2.45;1.60;;;;;;;22.04;53.10;100647.84;4992252;28;20096;-78
2022/08/29 05:58:58;;;;;;;3.95;1.65;;;;;;;22.02;53.18;100654.91;4988847;28;20046;-78
2022/08/29 06:01:28;;;;;;;3.55;1.40;;;;;;;21.99;53.17;100649.66;4983844;28;20483;-79
2022/08/29 06:03:57;;;;;;;3.70;1.50;;;;;;;21.92;52.91;100651.53;4988582;28;20484;-78
2022/08/29 06:06:29;;;;;;;4.00;1.58;;;;;;;21.85;53.38;100644.66;4989780;28;20057;-78
2022/08/29 06:08:58;;;;;;;2.75;1.40;;;;;;;21.80;53.42;100649.16;4980936;28;20042;-78
2022/08/29 06:11:29;;;;;;;3.92;1.58;;;;;;;21.75;53.15;100643.97;4988517;28;20050;-79
2022/08/29 06:13:58;;;;;;;2.97;1.60;;;;;;;21.71;53.90;100647.56;4988808;28;20061;-83
2022/08/29 06:16:28;;;;;;;4.70;1.65;;;;;;;21.64;53.76;100651.19;4986109;28;20046;-78
2022/08/29 06:18:57;;;;;;;3.83;1.85;;;;;;;21.59;54.15;100653.06;4986462;28;20042;-79
2022/08/29 06:21:27;;;;;;;4.25;1.50;;;;;;;21.53;53.88;100646.09;4978895;28;20141;-80
2022/08/29 06:23:56;;;;;;;3.35;1.40;;;;;;;21.48;54.10;100654.09;4986783;28;20132;-79
2022/08/29 06:26:24;;;;;;;3.28;1.50;;;;;;;21.44;54.04;100654.16;4987357;28;20492;-79
2022/08/29 06:28:53;;;;;;;3.28;1.30;;;;;;;21.37;54.93;100652.50;4986141;28;20066;-82
2022/08/29 06:31:25;;;;;;;4.20;1.60;;;;;;;21.30;55.11;100659.63;4984834;28;20092;-82
2022/08/29 06:33:56;;;;;;;3.38;1.63;;;;;;;21.22;55.04;100661.53;4993974;28;20092;-79
2022/08/29 06:36:26;;;;;;;1.33;1.20;;;;;;;21.20;55.60;100661.53;4991837;28;20052;-81
2022/08/29 06:38:57;;;;;;;5.57;1.75;;;;;;;21.17;55.30;100666.00;4985220;28;20058;-80
2022/08/29 06:41:25;;;;;;;5.00;1.60;;;;;;;21.14;55.56;100656.38;4987007;28;20042;-80
2022/08/29 06:43:56;;;;;;;3.08;1.42;;;;;;;21.07;55.67;100650.38;4989459;28;20579;-81
2022/08/29 06:46:30;;;;;;;3.28;1.42;;;;;;;21.07;55.83;100660.00;4989951;28;20058;-80
2022/08/29 06:49:00;;;;;;;5.03;1.92;;;;;;;21.07;56.24;100660.00;4967920;28;20529;-81
2022/08/29 06:51:31;;;;;;;2.88;1.67;;;;;;;21.06;55.96;100661.75;4970942;28;20051;-80
2022/08/29 06:54:00;;;;;;;4.00;1.83;;;;;;;21.07;56.10;100658.25;4972303;28;20101;-81
2022/08/29 06:56:29;;;;;;;2.88;1.60;;;;;;;21.07;56.24;100660.00;4966055;28;20047;-81
2022/08/29 06:58:58;;;;;;;4.43;1.60;;;;;;;21.07;56.12;100666.16;4971784;28;20109;-82
2022/08/29 07:01:27;;;;;;;2.17;1.33;;;;;;;21.04;56.20;100671.44;4973519;28;20043;-82
2022/08/29 07:03:56;;;;;;;2.95;1.58;;;;;;;21.00;56.10;100660.97;4972729;28;20058;-82
2022/08/29 07:06:26;;;;;;;2.72;1.60;;;;;;;20.96;56.24;100677.69;4971494;28;20135;-80
2022/08/29 07:08:56;;;;;;;4.43;1.73;;;;;;;20.93;56.02;100660.19;4971028;28;20050;-81
2022/08/29 07:11:26;;;;;;;3.10;1.60;;;;;;;20.90;56.67;100668.16;4968692;28;20183;-81
2022/08/29 07:13:57;;;;;;;3.20;1.50;;;;;;;20.86;56.50;100671.69;4975701;28;20473;-81
2022/08/29 07:16:26;;;;;;;4.87;1.60;;;;;;;20.80;56.43;100666.53;4974221;28;20146;-82
2022/08/29 07:18:55;;;;;;;4.18;1.50;;;;;;;20.74;56.43;100667.50;4967949;28;20109;-82
2022/08/29 07:21:26;;;;;;;3.40;1.50;;;;;;;20.69;56.74;100671.94;4967616;28;20501;-81
2022/08/29 07:23:58;;;;;;;3.47;1.58;;;;;;;20.63;56.95;100675.50;4967659;28;20061;-81
2022/08/29 07:26:29;;;;;;;4.47;1.93;;;;;;;20.57;57.10;100678.25;4966273;28;20718;-81
2022/08/29 07:28:59;;;;;;;2.88;1.67;;;;;;;20.51;57.62;100679.13;4979381;28;20109;-81
2022/08/29 07:31:27;;;;;;;4.53;1.80;;;;;;;20.49;57.41;100687.94;4969660;28;20055;-80
2022/08/29 07:33:56;;;;;;;2.40;1.42;;;;;;;20.46;57.58;100690.63;4973362;28;20053;-83
2022/08/29 07:36:24;;;;;;;3.00;1.30;;;;;;;20.42;57.36;100692.41;4970501;28;20043;-79
2022/08/29 07:38:53;;;;;;;2.97;1.60;;;;;;;20.35;57.66;100689.88;4974825;28;20493;-81
2022/08/29 07:41:23;;;;;;;4.43;1.77;;;;;;;20.31;57.50;100689.03;4969615;28;20489;-81
2022/08/29 07:43:52;;;;;;;2.55;1.38;;;;;;;20.28;58.09;100689.94;4969007;28;20058;-81
2022/08/29 07:46:21;;;;;;;3.92;1.40;;;;;;;20.22;58.79;100689.13;4969353;28;20051;-79
2022/08/29 07:48:51;;;;;;;4.07;1.75;;;;;;;20.19;59.78;100692.66;4992606;28;20050;-81
2022/08/29 07:51:22;;;;;;;2.78;1.60;;;;;;;20.15;59.64;100704.09;4988874;28;20118;-81
2022/08/29 07:53:51;;;;;;;4.28;1.80;;;;;;;20.10;58.92;100700.66;4991518;28;20113;-81
2022/08/29 07:56:23;;;;;;;4.45;1.55;;;;;;;20.06;59.36;100704.19;4988252;28;20057;-81
2022/08/29 07:58:51;;;;;;;3.60;1.60;;;;;;;20.01;59.46;100706.88;4987570;28;20097;-81
2022/08/29 08:01:20;;;;;;;4.30;1.80;;;;;;;19.98;61.34;100706.03;4997547;28;20046;-80
2022/08/29 08:03:49;;;;;;;2.85;1.60;;;;;;;19.95;61.06;100703.41;4992197;28;20051;-82
2022/08/29 08:06:18;;;;;;;4.15;1.73;;;;;;;19.90;60.83;100707.84;4983896;28;20058;-82
2022/08/29 08:08:46;;;;;;;2.47;1.45;;;;;;;19.87;61.08;100706.13;4991407;28;20046;-82
2022/08/29 08:11:15;;;;;;;2.75;1.80;;;;;;;19.80;61.09;100700.06;4991904;28;20083;-82
2022/08/29 08:13:45;;;;;;;3.22;1.67;;;;;;;19.79;61.10;100708.84;4990375;28;20046;-82
2022/08/29 08:16:16;;;;;;;1.98;1.60;;;;;;;19.76;61.05;100708.84;4986700;28;20515;-81
2022/08/29 08:18:45;;;;;;;3.70;1.90;;;;;;;19.70;62.00;100714.19;4990286;28;20050;-81
2022/08/29 08:21:14;;;;;;;4.30;1.80;;;;;;;19.64;61.69;100711.56;4988027;28;20076;-82
2022/08/29 08:23:43;;;;;;;3.75;1.60;;;;;;;19.60;61.44;100704.59;4990831;28;20041;-82
2022/08/29 08:26:13;;;;;;;6.43;1.80;;;;;;;19.57;61.66;100710.75;4989324;28;20053;-81
2022/08/29 08:28:44;;;;;;;3.45;1.70;;;;;;;19.55;61.75;100702.00;4989833;28;20058;-82
2022/08/29 08:31:21;;;;;;;3.58;1.60;;;;;;;19.54;62.29;100715.13;4989169;28;20066;-80
2022/08/29 08:33:50;;;;;;;5.47;1.80;;;;;;;19.51;63.46;100709.91;4984732;28;20057;-81
2022/08/29 08:36:22;;;;;;;4.25;1.83;;;;;;;19.44;63.74;100702.09;4987218;28;20050;-81
2022/08/29 08:38:51;;;;;;;3.45;1.63;;;;;;;19.39;63.54;100706.50;4984629;28;20063;-82
2022/08/29 08:41:31;;;;;;;4.18;1.63;;;;;;;19.35;63.38;100706.53;4988545;28;20077;-82
2022/08/29 08:44:06;;;;;;;3.70;1.60;;;;;;;19.27;63.71;100703.13;4983696;28;20113;-82
2022/08/29 08:46:39;;;;;;;3.63;1.73;;;;;;;19.27;63.76;100709.22;4988874;28;20125;-82
2022/08/29 08:49:11;;;;;;;4.78;1.55;;;;;;;19.23;63.36;100705.75;4991155;28;20042;-81
2022/08/29 08:51:44;;;;;;;3.33;1.75;;;;;;;19.15;64.31;100704.94;4990797;28;20047;-82
2022/08/29 08:54:20;;;;;;;4.00;1.67;;;;;;;19.09;63.86;100702.34;4990443;28;20077;-82
2022/08/29 08:56:52;;;;;;;5.18;1.90;;;;;;;19.06;64.33;100710.25;4988822;28;20050;-82
2022/08/29 08:59:28;;;;;;;3.65;1.90;;;;;;;19.01;63.91;100715.50;4987785;28;20054;-82
2022/08/29 09:02:02;;;;;;;5.38;2.17;;;;;;;18.97;64.35;100713.78;4992553;28;20069;-82
2022/08/29 09:05:03;;;;;;;3.20;1.77;;;;;;;18.93;64.44;100701.56;4989466;28;20074;-81
2022/08/29 09:07:49;;;;;;;2.60;1.70;;;;;;;18.90;65.22;100717.31;4985298;28;20511;-81
2022/08/29 09:10:30;;;;;;;5.80;1.92;;;;;;;18.87;65.33;100711.22;4987235;28;20082;-83
2022/08/29 09:13:06;;;;;;;3.50;1.80;;;;;;;18.84;65.21;100722.59;4986002;28;20054;-82
2022/08/29 09:15:42;;;;;;;3.60;1.80;;;;;;;18.81;65.31;100717.38;4982473;28;21043;-81
2022/08/29 09:18:15;;;;;;;3.92;1.90;;;;;;;18.74;66.31;100713.00;4995923;28;20046;-82
2022/08/29 09:20:43;;;;;;;3.10;1.70;;;;;;;18.68;66.25;100710.41;4989234;28;20042;-83
2022/08/29 09:23:20;;;;;;;3.97;1.90;;;;;;;18.66;65.97;100720.88;4983799;28;20786;-83
2022/08/29 09:25:49;;;;;;;2.92;1.90;;;;;;;18.60;66.53;100718.31;4982662;28;20516;-82
2022/08/29 09:28:18;;;;;;;3.55;1.80;;;;;;;18.56;66.98;100712.19;4984262;28;20042;-83
2022/08/29 09:31:17;;;;;;;3.55;1.50;;;;;;;18.48;67.24;100710.47;4989669;28;20057;-83
2022/08/29 09:33:48;;;;;;;3.85;1.70;;;;;;;18.43;67.71;100707.88;4981171;28;20054;-82
2022/08/29 09:36:34;;;;;;;2.85;1.70;;;;;;;18.42;67.16;100714.00;4987928;28;20054;-83
2022/08/29 09:39:19;;;;;;;2.80;1.70;;;;;;;18.36;67.24;100706.16;4986849;28;20101;-82
2022/08/29 09:41:49;;;;;;;6.63;1.90;;;;;;;18.35;67.73;100712.28;4987390;28;20591;-83
2022/08/29 09:44:24;;;;;;;1.98;1.63;;;;;;;18.33;68.23;100714.03;4985368;28;20047;-84
2022/08/29 09:47:10;;;;;;;4.03;1.83;;;;;;;18.27;67.71;100706.19;4986941;28;20046;-81
2022/08/29 09:49:39;;;;;;;4.38;1.50;;;;;;;18.21;68.67;100700.09;4971030;28;20050;-83
2022/08/29 09:52:15;;;;;;;3.28;1.70;;;;;;;18.23;68.19;100713.16;4983511;28;20493;-84
2022/08/29 09:54:44;;;;;;;5.07;1.60;;;;;;;18.20;67.69;100708.81;4985438;28;20409;-82
2022/08/29 09:57:24;;;;;;;2.58;1.65;;;;;;;18.16;67.58;100707.09;4979960;28;20062;-83
2022/08/29 10:00:12;;;;;;;3.80;2.00;;;;;;;18.12;67.67;100710.59;4983780;28;20407;-83
2022/08/29 10:02:49;;;;;;;3.15;1.90;;;;;;;18.09;68.25;100710.59;4984474;28;20054;-83
2022/08/29 10:05:32;;;;;;;2.58;1.75;;;;;;;18.07;70.05;100711.47;4988407;28;20046;-84
2022/08/29 10:08:01;;;;;;;2.33;1.60;;;;;;;18.03;69.76;100713.25;4989743;28;20089;-83
2022/08/29 10:10:34;;;;;;;4.90;1.70;;;;;;;18.06;69.41;100714.97;4993266;28;20670;-82
2022/08/29 10:13:08;;;;;;;2.38;1.65;;;;;;;18.01;68.41;100704.50;4989264;28;20586;-83
2022/08/29 10:15:42;;;;;;;4.22;1.90;;;;;;;18.00;68.13;100710.59;4990022;28;20563;-83
2022/08/29 10:18:27;;;;;;;3.97;1.70;;;;;;;18.01;68.27;100717.59;4987258;28;20058;-83
2022/08/29 10:21:09;;;;;;;3.38;1.60;;;;;;;18.01;69.07;100714.97;4986811;28;20043;-82
2022/08/29 10:23:46;;;;;;;4.65;1.90;;;;;;;18.01;69.22;100707.13;4991692;28;20072;-82
2022/08/29 10:26:27;;;;;;;3.05;1.60;;;;;;;18.03;68.90;100707.09;4990904;28;20057;-83
2022/08/29 10:29:06;;;;;;;7.50;2.00;;;;;;;17.95;67.90;100707.13;5001581;28;20436;-82
2022/08/29 10:31:40;;;;;;;3.30;1.58;;;;;;;17.89;68.09;100707.13;4991788;28;20500;-81
2022/08/29 10:34:32;;;;;;;2.85;1.90;;;;;;;17.81;68.93;100699.28;4991062;28;20046;-81
2022/08/29 10:37:08;;;;;;;3.75;1.75;;;;;;;17.83;68.51;100709.78;4987859;28;20064;-81
2022/08/29 10:39:44;;;;;;;3.28;1.83;;;;;;;17.82;68.88;100700.16;4989191;28;20499;-81
2022/08/29 10:42:18;;;;;;;2.75;1.63;;;;;;;17.82;69.24;100710.63;4984864;28;20046;-81
2022/08/29 10:45:00;;;;;;;3.60;1.70;;;;;;;17.80;69.21;100703.63;4988202;28;20497;-81
2022/08/29 10:47:37;;;;;;;3.47;1.75;;;;;;;17.79;68.65;100701.00;4990571;28;20510;-80
2022/08/29 10:50:28;;;;;;;3.30;1.80;;;;;;;17.79;68.99;100709.72;4982021;28;20050;-81
2022/08/29 10:53:04;;;;;;;2.45;1.60;;;;;;;17.79;68.22;100711.47;4988153;28;20544;-82
2022/08/29 10:55:48;;;;;;;4.10;1.70;;;;;;;17.74;68.36;100711.47;4994647;28;20050;-82
2022/08/29 10:58:31;;;;;;;2.38;1.52;;;;;;;17.73;68.65;100716.69;4987794;28;20070;-82
2022/08/29 11:01:06;;;;;;;3.60;1.83;;;;;;;17.71;68.28;100718.47;4993284;28;20237;-82
2022/08/29 11:03:42;;;;;;;1.98;1.67;;;;;;;17.68;68.63;100714.09;4986762;28;20050;-83
2022/08/29 11:06:23;;;;;;;5.22;1.70;;;;;;;17.65;69.36;100719.34;4992266;28;20053;-82
2022/08/29 11:08:57;;;;;;;4.18;1.60;;;;;;;17.66;69.87;100717.59;4984884;28;20496;-83
2022/08/29 11:11:28;;;;;;;3.95;1.77;;;;;;;17.68;69.39;100718.47;4989801;28;20054;-83
2022/08/29 11:14:01;;;;;;;3.95;1.75;;;;;;;17.69;69.24;100721.09;4994624;28;20058;-83
2022/08/29 11:16:34;;;;;;;4.30;1.65;;;;;;;17.71;69.33;100729.81;4987117;28;20188;-83
2022/08/29 11:19:11;;;;;;;2.80;1.50;;;;;;;17.72;69.56;100726.31;4996767;28;20054;-81
2022/08/29 11:21:48;;;;;;;2.83;1.50;;;;;;;17.75;68.69;100728.94;4988294;28;20109;-80
2022/08/29 11:24:19;;;;;;;3.53;1.77;;;;;;;17.75;68.93;100728.03;4987425;28;20408;-81
2022/08/29 11:26:58;;;;;;;2.78;1.65;;;;;;;17.77;68.97;100729.81;4992206;28;20062;-80
2022/08/29 11:29:39;;;;;;;2.10;1.35;;;;;;;17.78;68.92;100731.53;4988530;28;20559;-82
2022/08/29 11:32:13;;;;;;;3.22;1.70;;;;;;;17.77;68.84;100735.06;4987265;28;20046;-81
2022/08/29 11:34:54;;;;;;;5.35;1.65;;;;;;;17.80;68.28;100739.41;4990798;28;20574;-81
2022/08/29 11:37:52;;;;;;;3.20;1.75;;;;;;;17.82;69.06;100736.81;4990935;28;20054;-81
2022/08/29 11:40:48;;;;;;;4.72;1.90;;;;;;;17.83;68.12;100741.19;4987169;28;20132;-81
2022/08/29 11:43:22;;;;;;;2.95;1.83;;;;;;;17.82;68.00;100742.94;4993961;28;20042;-82
2022/08/29 11:45:58;;;;;;;3.35;1.92;;;;;;;17.80;68.37;100740.28;4987457;28;20046;-82
2022/08/29 11:48:37;;;;;;;4.13;1.98;;;;;;;17.78;68.16;100742.00;4985564;28;20050;-83
2022/08/29 11:51:32;;;;;;;3.17;1.98;;;;;;;17.76;68.41;100743.75;4990717;28;20050;-82